createdAt,value
2022-09-12T00:01:11.769Z,101818.88
2022-09-12T00:03:58.158Z,101822.44
2022-09-12T00:06:35.907Z,101814.25
2022-09-12T00:09:32.437Z,101819.72
2022-09-12T00:12:02.208Z,101822.13
2022-09-12T00:14:40.892Z,101814.25
2022-09-12T00:17:08.285Z,101815.88
2022-09-12T00:19:39.836Z,101807.13
2022-09-12T00:22:24.516Z,101807.13
2022-09-12T00:24:55.947Z,101805.19
2022-09-12T00:28:12.531Z,101804.94
2022-09-12T00:31:10.280Z,101803.84
2022-09-12T00:34:01.637Z,101800.25
2022-09-12T00:36:30.298Z,101798.38
2022-09-12T00:39:15.612Z,101787.72
2022-09-12T00:41:59.394Z,101785.81
2022-09-12T00:44:25.853Z,101789.88
2022-09-12T00:47:16.744Z,101781.19
2022-09-12T00:50:38.073Z,101790.72
2022-09-12T00:53:24.109Z,101790.72
2022-09-12T00:56:23.935Z,101780.34
2022-09-12T00:59:01.794Z,101785.50
2022-09-12T01:01:36.880Z,101780.91
2022-09-12T01:04:28.145Z,101780.34
2022-09-12T01:07:24.313Z,101786.34
2022-09-12T01:10:39.656Z,101780.34
2022-09-12T01:13:09.272Z,101776.78
2022-09-12T01:15:52.680Z,101774.88
2022-09-12T01:18:30.964Z,101773.22
2022-09-12T01:21:24.826Z,101775.72
2022-09-12T01:24:47.372Z,101775.97
2022-09-12T01:28:03.837Z,101775.16
2022-09-12T01:31:13.220Z,101769.97
2022-09-12T01:34:28.461Z,101770.25
2022-09-12T01:37:12.981Z,101756.59
2022-09-12T01:40:33.864Z,101755.78
2022-09-12T01:43:28.759Z,101760.66
2022-09-12T01:46:44.108Z,101760.13
2022-09-12T01:49:19.955Z,101755.19
2022-09-12T01:52:18.525Z,101754.09
2022-09-12T01:55:05.445Z,101750.81
2022-09-12T01:57:56.114Z,101744.56
2022-09-12T02:00:27.284Z,101735.84
2022-09-12T02:03:38.454Z,101735.00
2022-09-12T02:06:12.064Z,101732.25
2022-09-12T02:09:20.818Z,101729.28
2022-09-12T02:11:52.471Z,101726.00
2022-09-12T02:14:42.996Z,101727.88
2022-09-12T02:17:16.623Z,101724.00
2022-09-12T02:20:26.032Z,101723.47
2022-09-12T02:23:08.909Z,101722.91
2022-09-12T02:25:43.138Z,101722.09
2022-09-12T02:28:21.687Z,101719.63
2022-09-12T02:31:23.339Z,101719.06
2022-09-12T02:34:35.465Z,101721.78
2022-09-12T02:37:08.720Z,101716.91
2022-09-12T02:39:55.826Z,101720.16
2022-09-12T02:42:29.361Z,101708.72
2022-09-12T02:45:00.112Z,101714.16
2022-09-12T02:48:04.233Z,101711.44
2022-09-12T02:50:32.176Z,101703.78
2022-09-12T02:53:13.411Z,101702.16
2022-09-12T02:55:42.050Z,101700.53
2022-09-12T02:58:18.235Z,101694.53
2022-09-12T03:01:12.499Z,101695.09
2022-09-12T03:04:08.308Z,101690.19
2022-09-12T03:07:13.137Z,101693.47
2022-09-12T03:13:39.137Z,101685.53
2022-09-12T03:16:31.711Z,101679.81
2022-09-12T03:19:29.268Z,101681.47
2022-09-12T03:22:34.845Z,101680.09
2022-09-12T03:25:49.720Z,101682.00
2022-09-12T03:28:19.139Z,101687.72
2022-09-12T03:31:16.772Z,101680.63
2022-09-12T03:34:13.108Z,101675.47
2022-09-12T03:36:49.792Z,101685.28
2022-09-12T03:39:21.078Z,101673.53
2022-09-12T03:41:51.210Z,101681.47
2022-09-12T03:44:23.152Z,101676.00
2022-09-12T03:46:51.770Z,101678.72
2022-09-12T03:49:27.515Z,101679.53
2022-09-12T03:51:57.026Z,101674.06
2022-09-12T03:54:27.591Z,101671.63
2022-09-12T03:56:55.192Z,101675.97
2022-09-12T03:59:22.776Z,101665.06
2022-09-12T04:01:56.324Z,101665.06
2022-09-12T04:04:30.062Z,101660.97
2022-09-12T04:07:11.190Z,101659.31
2022-09-12T04:09:56.443Z,101643.00
2022-09-12T04:12:31.618Z,101643.00
2022-09-12T04:15:00.270Z,101648.44
2022-09-12T04:17:36.116Z,101655.28
2022-09-12T04:20:06.769Z,101658.25
2022-09-12T04:22:35.535Z,101660.97
2022-09-12T04:25:19.546Z,101663.44
2022-09-12T04:27:48.222Z,101649.28
2022-09-12T04:30:16.102Z,101660.75
2022-09-12T04:33:32.593Z,101658.81
2022-09-12T04:36:25.034Z,101664.25
2022-09-12T04:39:10.632Z,101660.75
2022-09-12T04:41:53.656Z,101651.47
2022-09-12T04:44:25.204Z,101656.94
2022-09-12T04:47:12.145Z,101657.47
2022-09-12T04:49:44.930Z,101649.84
2022-09-12T04:52:11.697Z,101649.84
2022-09-12T04:54:42.869Z,101644.13
2022-09-12T04:57:13.471Z,101644.66
2022-09-12T04:59:40.191Z,101646.06
2022-09-12T05:02:07.830Z,101652.59
2022-09-12T05:04:36.135Z,101652.59
2022-09-12T05:07:09.866Z,101651.25
2022-09-12T05:09:47.914Z,101646.06
2022-09-12T05:12:24.036Z,101643.09
2022-09-12T05:14:55.958Z,101645.53
2022-09-12T05:18:00.523Z,101643.09
2022-09-12T05:20:40.448Z,101645.53
2022-09-12T05:23:09.917Z,101648.81
2022-09-12T05:25:59.495Z,101651.84
2022-09-12T05:28:30.811Z,101646.63
2022-09-12T05:31:24.263Z,101651.28
2022-09-12T05:34:15.724Z,101643.91
2022-09-12T05:37:00.756Z,101633.06
2022-09-12T05:39:34.371Z,101635.78
2022-09-12T05:42:09.285Z,101636.88
2022-09-12T05:44:37.034Z,101641.78
2022-09-12T05:47:04.601Z,101643.41
2022-09-12T05:49:59.949Z,101642.31
2022-09-12T05:52:41.014Z,101639.06
2022-09-12T05:55:16.678Z,101626.53
2022-09-12T05:57:50.489Z,101635.81
2022-09-12T06:00:20.662Z,101639.06
2022-09-12T06:03:02.455Z,101637.72
2022-09-12T06:05:29.094Z,101642.34
2022-09-12T06:08:04.177Z,101643.97
2022-09-12T06:11:03.901Z,101635.53
2022-09-12T06:13:42.861Z,101630.09
2022-09-12T06:16:31.291Z,101641.00
2022-09-12T06:19:18.934Z,101634.72
2022-09-12T06:22:10.045Z,101644.53
2022-09-12T06:24:44.766Z,101645.06
2022-09-12T06:27:20.618Z,101643.72
2022-09-12T06:30:37.425Z,101639.91
2022-09-12T06:33:56.625Z,101640.19
2022-09-12T06:36:49.652Z,101652.72
2022-09-12T06:39:26.233Z,101648.66
2022-09-12T06:42:12.636Z,101644.53
2022-09-12T06:44:40.300Z,101646.19
2022-09-12T06:47:12.932Z,101642.63
2022-09-12T06:49:56.746Z,101639.34
2022-09-12T06:52:55.189Z,101635.84
2022-09-12T06:55:27.714Z,101633.38
2022-09-12T06:58:05.887Z,101631.47
2022-09-12T07:00:32.475Z,101625.47
2022-09-12T07:03:05.238Z,101616.19
2022-09-12T07:05:35.813Z,101621.91
2022-09-12T07:08:08.344Z,101623.53
2022-09-12T07:11:25.809Z,101620.53
2022-09-12T07:14:37.796Z,101618.84
2022-09-12T07:17:28.983Z,101626.47
2022-09-12T07:20:07.249Z,101625.38
2022-09-12T07:22:37.956Z,101630.56
2022-09-12T07:25:11.507Z,101628.63
2022-09-12T07:27:47.133Z,101635.47
2022-09-12T07:30:23.252Z,101622.59
2022-09-12T07:32:56.069Z,101624.50
2022-09-12T07:35:33.428Z,101623.38
2022-09-12T07:38:11.248Z,101627.72
2022-09-12T07:40:38.690Z,101625.50
2022-09-12T07:43:21.928Z,101617.81
2022-09-12T07:45:55.909Z,101615.88
2022-09-12T07:48:30.466Z,101624.06
2022-09-12T07:51:03.476Z,101624.56
2022-09-12T07:53:40.174Z,101616.34
2022-09-12T07:56:11.232Z,101620.38
2022-09-12T07:58:44.995Z,101620.88
2022-09-12T08:01:25.124Z,101629.81
2022-09-12T08:04:00.003Z,101624.03
2022-09-12T08:06:37.059Z,101620.16
2022-09-12T08:09:17.468Z,101625.59
2022-09-12T08:11:50.140Z,101626.09
2022-09-12T08:14:32.096Z,101630.94
2022-09-12T08:16:59.544Z,101627.91
2022-09-12T08:19:28.005Z,101631.38
2022-09-12T08:21:55.465Z,101638.19
2022-09-12T08:28:15.807Z,101631.41
2022-09-12T08:30:43.369Z,101629.13
2022-09-12T08:33:10.901Z,101621.09
2022-09-12T08:35:54.680Z,101629.72
2022-09-12T08:38:25.287Z,101626.03
2022-09-12T08:41:05.290Z,101628.66
2022-09-12T08:44:23.705Z,101630.16
2022-09-12T08:47:02.488Z,101630.06
2022-09-12T08:49:34.283Z,101625.03
2022-09-12T08:52:15.485Z,101626.59
2022-09-12T08:54:45.510Z,101630.59
2022-09-12T08:57:20.325Z,101632.66
2022-09-12T08:59:48.305Z,101627.56
2022-09-12T09:02:44.960Z,101619.44
2022-09-12T09:05:25.211Z,101610.78
2022-09-12T09:08:18.517Z,101607.03
2022-09-12T09:11:03.736Z,101601.47
2022-09-12T09:13:56.496Z,101597.25
2022-09-12T09:16:30.633Z,101594.91
2022-09-12T09:19:05.990Z,101603.91
2022-09-12T09:21:48.816Z,101602.38
2022-09-12T09:24:21.752Z,101598.13
2022-09-12T09:27:01.661Z,101591.94
2022-09-12T09:29:51.183Z,101587.66
2022-09-12T09:32:22.904Z,101587.28
2022-09-12T09:34:49.665Z,101587.16
2022-09-12T09:37:42.469Z,101589.50
2022-09-12T09:40:24.255Z,101584.41
2022-09-12T09:43:29.809Z,101588.69
2022-09-12T09:45:58.380Z,101596.00
2022-09-12T09:48:29.837Z,101586.53
2022-09-12T09:50:58.375Z,101590.78
2022-09-12T09:53:39.732Z,101578.28
2022-09-12T09:56:13.427Z,101572.38
2022-09-12T09:58:40.471Z,101577.47
2022-09-12T10:01:17.018Z,101574.56
2022-09-12T10:03:55.775Z,101567.03
2022-09-12T10:06:38.034Z,101568.03
2022-09-12T10:09:18.745Z,101571.28
2022-09-12T10:11:46.244Z,101571.78
2022-09-12T10:14:31.487Z,101563.41
2022-09-12T12:25:50.516Z,101465.56
2022-09-12T12:28:40.212Z,101469.63
2022-09-12T12:31:07.340Z,101466.69
2022-09-12T12:33:37.392Z,101465.38
2022-09-12T12:36:07.143Z,101450.94
2022-09-12T12:38:36.586Z,101465.69
2022-09-12T12:41:18.453Z,101460.66
2022-09-12T12:43:47.984Z,101450.13
2022-09-12T12:46:16.854Z,101451.56
2022-09-12T12:49:00.951Z,101447.16
2022-09-12T12:51:36.908Z,101450.88
2022-09-12T12:54:25.235Z,101434.50
2022-09-12T12:57:15.648Z,101426.69
2022-09-12T13:00:11.374Z,101426.03
2022-09-12T13:03:09.506Z,101414.34
2022-09-12T13:05:46.732Z,101422.28
2022-09-12T13:08:19.253Z,101420.81
2022-09-12T13:11:15.907Z,101420.63
2022-09-12T13:13:58.858Z,101411.69
2022-09-12T13:16:39.055Z,101403.09
2022-09-12T13:19:18.171Z,101405.53
2022-09-12T13:22:05.430Z,101397.72
2022-09-12T13:24:34.113Z,101386.03
2022-09-12T13:27:00.655Z,101386.94
2022-09-12T13:29:28.115Z,101393.44
2022-09-12T13:31:59.178Z,101376.19
2022-09-12T13:34:47.117Z,101378.28
2022-09-12T13:37:41.484Z,101379.25
2022-09-12T13:40:37.434Z,101383.16
2022-09-12T13:43:21.843Z,101373.91
2022-09-12T13:45:48.433Z,101377.69
2022-09-12T13:48:25.287Z,101372.84
2022-09-12T13:50:56.392Z,101366.50
2022-09-12T13:53:27.184Z,101376.72
2022-09-12T13:55:57.048Z,101372.47
2022-09-12T13:58:33.221Z,101369.25
2022-09-12T14:01:05.344Z,101372.84
2022-09-12T14:03:58.055Z,101361.78
2022-09-12T14:06:26.237Z,101367.44
2022-09-12T14:09:01.490Z,101362.38
2022-09-12T14:11:33.710Z,101363.03
2022-09-12T14:14:06.472Z,101365.91
2022-09-12T14:16:39.937Z,101354.19
2022-09-12T14:19:06.381Z,101345.91
2022-09-12T14:21:35.952Z,101354.66
2022-09-12T14:24:06.703Z,101347.22
2022-09-12T14:26:40.429Z,101338.56
2022-09-12T14:29:08.040Z,101342.47
2022-09-12T14:31:39.259Z,101328.66
2022-09-12T14:34:14.948Z,101325.44
2022-09-12T14:36:47.213Z,101320.59
2022-09-12T14:39:40.069Z,101322.41
2022-09-12T14:42:12.883Z,101317.22
2022-09-12T14:44:39.956Z,101314.78
2022-09-12T14:47:18.444Z,101308.47
2022-09-12T14:49:46.106Z,101306.97
2022-09-12T14:52:34.178Z,101309.41
2022-09-12T14:55:34.059Z,101310.69
2022-09-12T14:58:28.209Z,101304.00
2022-09-12T15:01:04.580Z,101306.31
2022-09-12T15:03:48.682Z,101304.69
2022-09-12T15:06:25.510Z,101300.19
2022-09-12T15:08:54.865Z,101301.16
2022-09-12T15:11:21.535Z,101298.75
2022-09-12T15:13:48.183Z,101292.75
2022-09-12T15:16:14.664Z,101296.19
2022-09-12T15:18:41.481Z,101303.22
2022-09-12T15:21:11.791Z,101301.13
2022-09-12T15:23:45.656Z,101296.25
2022-09-12T15:26:18.549Z,101291.03
2022-09-12T15:28:45.837Z,101285.88
2022-09-12T15:31:27.851Z,101294.00
2022-09-12T15:33:55.361Z,101280.53
2022-09-12T15:36:24.785Z,101282.81
2022-09-12T15:38:52.242Z,101283.63
2022-09-12T15:41:32.480Z,101285.09
2022-09-12T15:43:58.975Z,101273.59
2022-09-12T15:46:26.458Z,101276.34
2022-09-12T15:48:52.900Z,101271.97
2022-09-12T15:51:21.188Z,101279.31
2022-09-12T15:53:49.014Z,101278.47
2022-09-12T15:56:21.092Z,101265.03
2022-09-12T15:58:58.158Z,101260.00
2022-09-12T16:01:25.627Z,101260.31
2022-09-12T16:03:52.060Z,101256.75
2022-09-12T16:06:18.403Z,101252.38
2022-09-12T16:08:44.823Z,101250.75
2022-09-12T16:11:19.372Z,101254.66
2022-09-12T16:13:45.687Z,101246.22
2022-09-12T16:16:13.388Z,101246.56
2022-09-12T16:18:41.442Z,101250.47
2022-09-12T16:21:11.469Z,101250.31
2022-09-12T16:23:46.303Z,101250.19
2022-09-12T16:26:13.392Z,101232.81
2022-09-12T16:28:40.096Z,101231.06
2022-09-12T16:31:08.650Z,101236.94
2022-09-12T16:33:37.897Z,101238.38
2022-09-12T16:36:07.424Z,101237.44
2022-09-12T16:38:35.645Z,101234.88
2022-09-12T16:41:06.676Z,101235.88
2022-09-12T16:43:35.083Z,101232.47
2022-09-12T16:46:16.222Z,101237.03
2022-09-12T16:48:52.082Z,101236.91
2022-09-12T16:51:21.676Z,101237.41
2022-09-12T16:53:48.704Z,101231.25
2022-09-12T16:56:15.416Z,101229.94
2022-09-12T16:58:42.422Z,101221.84
2022-09-12T17:01:15.144Z,101220.91
2022-09-12T17:03:42.603Z,101210.06
2022-09-12T17:06:12.840Z,101204.72
2022-09-12T17:08:42.530Z,101192.59
2022-09-12T17:11:11.781Z,101196.34
2022-09-12T17:14:02.608Z,101199.28
2022-09-12T17:16:27.895Z,101199.94
2022-09-12T17:18:54.912Z,101183.22
2022-09-12T17:21:22.508Z,101190.03
2022-09-12T17:23:49.282Z,101187.63
2022-09-12T17:26:17.412Z,101183.44
2022-09-12T17:28:44.097Z,101188.63
2022-09-12T17:31:13.692Z,101180.53
2022-09-12T17:33:40.877Z,101183.44
2022-09-12T17:36:14.860Z,101189.28
2022-09-12T17:38:48.149Z,101189.94
2022-09-12T17:41:18.463Z,101198.03
2022-09-12T17:43:49.402Z,101204.81
2022-09-12T17:46:18.571Z,101211.59
2022-09-12T17:48:55.152Z,101200.09
2022-09-12T17:51:24.930Z,101200.25
2022-09-12T17:54:08.395Z,101203.16
2022-09-12T17:56:37.100Z,101193.50
2022-09-12T17:59:05.367Z,101203.50
2022-09-12T18:01:51.220Z,101194.59
2022-09-12T18:04:17.892Z,101187.97
2022-09-12T18:06:49.001Z,101186.97
2022-09-12T18:09:23.297Z,101180.00
2022-09-12T18:11:51.498Z,101179.03
2022-09-12T18:14:18.537Z,101187.94
2022-09-12T18:16:46.945Z,101186.94
2022-09-12T18:19:15.007Z,101197.75
2022-09-12T18:21:42.738Z,101205.34
2022-09-12T18:24:10.173Z,101198.88
2022-09-12T18:26:38.446Z,101205.00
2022-09-12T18:29:06.632Z,101205.16
2022-09-12T18:31:34.227Z,101208.84
2022-09-12T18:34:00.987Z,101210.59
2022-09-12T18:36:28.352Z,101208.78
2022-09-12T18:38:56.836Z,101207.78
2022-09-12T18:41:24.787Z,101202.94
2022-09-12T18:43:59.902Z,101209.69
2022-09-12T18:46:27.929Z,101202.41
2022-09-12T18:48:58.698Z,101202.22
2022-09-12T18:51:31.914Z,101198.19
2022-09-12T18:54:06.346Z,101202.69
2022-09-12T18:56:35.068Z,101186.03
2022-09-12T18:59:05.469Z,101191.34
2022-09-12T19:01:34.712Z,101195.53
2022-09-12T19:04:04.679Z,101200.53
2022-09-12T19:06:35.188Z,101192.44
2022-09-12T19:09:07.618Z,101180.94
2022-09-12T19:11:39.267Z,101170.59
2022-09-12T19:14:06.504Z,101178.63
2022-09-12T19:16:33.761Z,101174.59
2022-09-12T19:19:02.670Z,101169.72
2022-09-12T19:21:31.371Z,101166.47
2022-09-12T19:24:10.090Z,101158.06
2022-09-12T19:26:39.056Z,101157.88
2022-09-12T19:29:06.687Z,101159.31
2022-09-12T19:31:35.356Z,101156.06
2022-09-12T19:34:06.495Z,101155.88
2022-09-12T19:36:50.670Z,101147.66
2022-09-12T19:39:20.091Z,101144.41
2022-09-12T19:41:47.028Z,101159.25
2022-09-12T19:44:13.687Z,101153.78
2022-09-12T19:46:40.804Z,101155.41
2022-09-12T19:49:10.072Z,101155.41
2022-09-12T19:51:38.722Z,101162.50
2022-09-12T19:54:06.041Z,101169.63
2022-09-12T19:56:33.427Z,101165.75
2022-09-12T19:59:00.106Z,101169.00
2022-09-12T20:01:28.518Z,101173.34
2022-09-12T20:03:57.563Z,101164.00
2022-09-12T20:06:24.761Z,101163.16
2022-09-12T20:08:52.231Z,101165.13
2022-09-12T20:11:21.776Z,101161.56
2022-09-12T20:13:48.225Z,101156.38
2022-09-12T20:16:23.189Z,101150.91
2022-09-12T20:18:55.226Z,101148.44
2022-09-12T20:21:25.530Z,101146.81
2022-09-12T20:23:51.950Z,101137.31
2022-09-12T20:26:20.393Z,101147.25
2022-09-12T20:28:47.109Z,101146.75
2022-09-12T20:31:16.537Z,101133.84
2022-09-12T20:33:43.487Z,101131.41
2022-09-12T20:36:16.995Z,101139.47
2022-09-12T20:38:50.023Z,101132.50
2022-09-12T20:41:19.828Z,101139.72
2022-09-12T20:43:53.059Z,101138.41
2022-09-12T20:46:22.481Z,101135.16
2022-09-12T20:48:51.182Z,101135.78
2022-09-12T20:51:19.956Z,101140.75
2022-09-12T20:53:54.855Z,101148.81
2022-09-12T20:56:22.565Z,101155.09
2022-09-12T20:58:49.075Z,101151.22
2022-09-12T21:01:17.146Z,101146.56
2022-09-12T21:03:44.723Z,101144.13
2022-09-12T21:06:16.852Z,101146.56
2022-09-12T21:08:44.200Z,101150.63
2022-09-12T21:11:10.775Z,101148.69
2022-09-12T21:13:38.808Z,101137.41
2022-09-12T21:16:12.249Z,101134.66
2022-09-12T21:18:39.525Z,101131.91
2022-09-12T21:21:06.126Z,101127.88
2022-09-12T21:23:33.668Z,101116.06
2022-09-12T21:26:01.355Z,101129.28
2022-09-12T21:28:28.520Z,101124.94
2022-09-12T21:31:00.976Z,101122.19
2022-09-12T21:33:28.439Z,101132.66
2022-09-12T21:36:02.653Z,101132.16
2022-09-12T21:38:31.764Z,101144.75
2022-09-12T21:41:05.202Z,101138.47
2022-09-12T21:43:31.653Z,101140.88
2022-09-12T21:46:01.563Z,101137.00
2022-09-12T21:48:30.424Z,101136.22
2022-09-12T21:50:58.480Z,101140.09
2022-09-12T21:53:26.416Z,101134.59
2022-09-12T21:56:01.299Z,101132.16
2022-09-12T21:58:27.845Z,101133.78
2022-09-12T22:00:55.341Z,101135.41
2022-09-12T22:03:22.176Z,101142.50
2022-09-12T22:05:58.817Z,101127.66
2022-09-12T22:08:26.895Z,101137.34
2022-09-12T22:10:58.449Z,101146.38
2022-09-12T22:13:26.193Z,101140.88
2022-09-12T22:15:53.175Z,101133.78
2022-09-12T22:18:20.697Z,101146.38
2022-09-12T22:20:48.308Z,101148.00
2022-09-12T22:23:33.757Z,101144.44
2022-09-12T22:26:03.180Z,101142.50
2022-09-12T22:28:32.083Z,101140.88
2022-09-12T22:30:59.600Z,101138.13
2022-09-12T22:33:27.952Z,101130.72
2022-09-12T22:35:56.323Z,101132.16
2022-09-12T22:38:26.205Z,101127.00
2022-09-12T22:40:53.619Z,101127.28
2022-09-12T22:43:21.071Z,101113.06
2022-09-12T22:45:48.532Z,101113.06
2022-09-12T22:48:17.121Z,101113.06
2022-09-12T22:50:45.726Z,101111.94
2022-09-12T22:53:12.103Z,101109.22
2022-09-12T22:55:38.565Z,101109.53
2022-09-12T22:58:06.133Z,101106.78
2022-09-12T23:00:33.817Z,101098.88
2022-09-12T23:03:02.287Z,101090.13
2022-09-12T23:05:28.996Z,101091.75
2022-09-12T23:07:56.376Z,101088.50
2022-09-12T23:10:23.797Z,101086.59
2022-09-12T23:12:50.325Z,101084.66
2022-09-12T23:15:16.909Z,101083.03
2022-09-12T23:17:43.292Z,101073.50
2022-09-12T23:20:10.843Z,101079.00
2022-09-12T23:22:38.216Z,101080.44
2022-09-12T23:25:04.940Z,101082.84
2022-09-12T23:27:32.436Z,101079.63
2022-09-12T23:29:59.808Z,101079.63
2022-09-12T23:32:27.428Z,101084.31
2022-09-12T23:34:53.916Z,101072.84
2022-09-12T23:37:21.657Z,101079.44
2022-09-12T23:39:49.647Z,101070.09
2022-09-12T23:42:16.999Z,101069.25
2022-09-12T23:44:43.476Z,101068.47
2022-09-12T23:47:18.487Z,101064.59
2022-09-12T23:49:45.898Z,101064.09
2022-09-12T23:52:12.337Z,101059.75
2022-09-12T23:54:40.136Z,101060.88
2022-09-12T23:57:08.663Z,101052.13
2022-09-12T23:59:35.139Z,101048.56
